METAR

ENBN 121620Z 15016KT 9999 FEW020 SCT084 06/M03 Q0983

ENMS 121620Z 17016KT 9999 FEW040 SCT090 04/M04 Q0984 RMK WIND 412FT 13012G23KT 080V180

ENNM 121620Z 06006KT CAVOK 04/M03 Q0984

ENOL 121620Z 15018KT 9999 FEW040 BKN160 06/M03 Q0982 NOSIG

ENST 121620Z 15014G28KT 040V200 9999 FEW045 SCT080 06/M05 Q0982 RMK WIND 300FT 13028G39KT TURB WRNG-SEE IPPC

ENVA 121620Z VRB07KT CAVOK 06/M05 Q0985 TEMPO 17015G25KT RMK WIND 670FT 17014G24KT



TAF

TAF ENVA 121100Z 1212/1312 10008KT 9999 FEW035 SCT070 TEMPO 1212/1221 17015G25KT